x

East Lake Ontario - 20nm North Northeast Of Rochester, Ny (45012) Wave Buoy

1:50am - Sun 31st Jul 2016 All times are CDT. -5 hours from GMT.

  • Sig Wave height 3.6ft
  • Swell Direction
  • Peak Period 5s
  • Average Period 4s
  • Wind
    18mph, 22mph gusts
  • Sea Temp 73°f
  • Air Temp 73°f
  • Sea Pressure 1015.6mb
  • East Lake Ontario  - 20nm North Northeast Of Rochester, Ny
  • East Lake Ontario  - 20nm North Northeast Of Rochester, Ny

More Historic Weather Station data

Upgrade to MSW Pro to gain access to the past 30 days of data for over 8000 Wavebouys and Weather Stations around the globe.

Join Pro

Comparision Forecast

View Surf forecast
   
Sun 07/31 1:50am 3.5ft 5s 4s 18 22 mph 1015.6mb 73f 73f
12:50am 3.5ft 5s 4s 20 25 mph 1015.8mb 73f 73f
Sat 07/30 11:50pm 3ft 4s 4s 22 27 mph 1016.3mb 73f 74f
10:50pm 1.6ft 3s 3s 20 22 mph 1016.7mb 73f 74f
9:50pm 0.7ft  -  3s 16 18 mph 1016.9mb 73f 75f
8:50pm 0.7ft  -  3s 9 11 mph 1017.1mb 73f 74f
7:50pm 1ft 3s 3s 11
mph
1016.6mb 73f 74f
6:50pm 1ft 3s 3s 9 11 mph 1016.4mb 73f 74f
5:50pm 1.3ft 4s 3s 11 13 mph 1016.2mb 73f 74f
4:50pm 1.6ft 4s 3s 13 16 mph 1016.1mb 73f 74f
3:50pm 1.6ft 4s 3s 13 16 mph 1016.3mb 73f 74f
2:50pm 2ft 4s 3s 13 18 mph 1016.7mb 73f 73f
1:50pm 2.5ft 4s 4s 16 20 mph 1016.9mb 73f 72f
12:50pm 3ft 4s 4s 18 20 mph 1017.2mb 73f 71f
11:50am 3ft 5s 4s 18 22 mph 1017.7mb 73f 71f
10:50am 3.5ft 5s 4s 18 22 mph 1017.9mb 73f 70f
9:50am 3.5ft 5s 4s 18 22 mph 1017.6mb 73f 69f
8:50am 3ft 5s 4s 20 22 mph 1017.4mb 73f 70f
7:50am 3.5ft 5s 4s 20 22 mph 1017.2mb 73f 70f
6:50am 3.5ft 5s 4s 18 22 mph 1017.1mb 73f 70f
5:50am 3.5ft 5s 4s 18 20 mph 1016.5mb 73f 70f
4:50am 3.5ft 5s 4s 20 22 mph 1016.1mb 73f 70f
3:50am 3.5ft 5s 4s 20 22 mph 1016.1mb 73f 71f
2:50am 3.5ft 5s 4s 20 25 mph 1015.9mb 73f 71f
1:50am 3ft 5s 4s 20 25 mph 1016mb 74f 72f
12:50am 2.5ft 4s 3s 20 25 mph 1015.9mb 74f 71f
Fri 07/29 11:50pm 1.6ft 3s 3s 20 22 mph 1015.9mb 74f 72f
10:50pm  -   -   -  22 25 mph 1015.7mb 75f 73f
9:50pm  -   -   -  9
mph
1015.5mb 75f 74f
8:50pm 0.3ft  -  3s 7
mph
1015.2mb 75f 74f
7:50pm 0.3ft  -  3s 4 7 mph 1014.6mb 76f 75f
6:50pm 0.7ft  -  3s 4 7 mph 1014.2mb 76f 75f
5:50pm 0.7ft  -  3s 2
mph
1014mb 76f 75f
4:50pm 1ft 4s 3s  -  mph 1014.1mb 76f 77f
3:50pm 1ft 4s 4s 2 4 mph 1014.1mb 76f 75f
2:50pm 1.3ft 4s 4s 4 7 mph 1014.2mb 75f 74f
1:50pm 1.3ft 4s 4s  -  2 mph 1014.4mb 75f 75f
12:50pm 1.6ft 5s 4s 2
mph
1014.6mb 74f 74f
11:50am 2ft 5s 4s 9 11 mph 1014.1mb 74f 73f
10:50am 2.5ft 4s 4s 11 13 mph 1014.3mb 74f 72f
9:50am 2.5ft 4s 3s 13 16 mph 1014.3mb 74f 71f
8:50am 2.5ft 4s 4s 16 20 mph 1014mb 74f 70f
7:50am 2.5ft 4s 3s 18 22 mph 1013.8mb 74f 69f
6:50am 2.5ft 3s 3s 18 22 mph 1013.1mb 74f 69f
5:50am 2ft 3s 3s 18 22 mph 1012.8mb 74f 70f
4:50am 1.3ft 3s 3s 18 20 mph 1012.3mb 74f 71f
3:50am 1ft 3s 3s 16 20 mph 1012.3mb 74f 73f
2:50am 0.7ft  -  3s 11 13 mph 1012.3mb 74f 74f
1:50am  -   -  3s 13 16 mph 1012.1mb 75f 74f
12:50am  -   -   -  9 11 mph 1011.9mb 75f 74f
Thu 07/28 11:50pm  -   -  3s 2 4 mph 1012.2mb 75f 74f
10:50pm 0.3ft  -  3s 2 4 mph 1012.1mb 75f 74f
9:50pm  -   -   -   -  2 mph 1012.3mb 75f 74f
8:50pm 0.3ft  -  3s 4 7 mph 1012mb 75f 75f
7:50pm 0.3ft  -  3s 2 4 mph 1011.6mb 75f 75f
6:50pm 0.3ft  -  3s 4 7 mph 1011.5mb 75f 75f
5:50pm 0.3ft  -  3s 7 9 mph 1011.3mb 76f 75f
4:50pm 0.3ft  -  3s 4 7 mph 1011.2mb 75f 75f
3:50pm 0.3ft  -  3s 9
mph
1011.4mb 75f 75f
1:50pm 0.3ft  -  3s 9
mph
1012mb 75f 74f
12:50pm 0.3ft  -  3s 7
mph
1012.5mb 75f 73f
11:50am 0.3ft  -  3s 9
mph
1012.6mb 74f 73f
10:50am 0.3ft  -  3s 7
mph
1012.8mb 74f 73f
9:50am 0.3ft  -  3s 7
mph
1012.8mb 74f 73f
8:50am 0.7ft  -  3s 7 9 mph 1012.9mb 74f 73f
7:50am 0.7ft  -  3s 9 11 mph 1013.1mb 74f 73f
6:50am 1ft 4s 3s 7 9 mph 1012.6mb 74f 74f
5:50am 1ft 5s 3s 7 9 mph 1012.5mb 74f 73f
4:50am 1ft 3s 3s 9
mph
1011.9mb 74f 73f
3:50am 1ft 4s 3s 7 9 mph 1012mb 74f 73f
2:50am 1ft 4s 3s 7 9 mph 1011.8mb 74f 74f
1:50am 1ft 4s 3s 7 9 mph 1012.1mb 74f 73f
12:50am 1ft 3s 3s 9 11 mph 1012.2mb 74f 74f
Wed 07/27 11:50pm 0.7ft  -  3s 13 16 mph 1012.5mb 74f 74f
10:50pm 0.7ft  -  3s 11
mph
1012.4mb 75f 74f
9:50pm 0.3ft  -  3s 9
mph
1012.1mb 75f 75f
8:50pm 0.3ft  -  3s 11 13 mph 1012.1mb 75f 76f
7:50pm 0.3ft  -  3s 4 7 mph 1011.7mb 76f 76f
6:50pm 0.3ft  -  3s 7 9 mph 1012mb 76f 78f
5:50pm 0.3ft  -  3s 4
mph
1012mb 76f 77f
4:50pm 0.3ft  -  3s 7
mph
1011.6mb 76f 78f
3:50pm 0.3ft  -  3s 7 9 mph 1011.7mb 76f 77f
2:50pm 0.3ft  -  3s 4
mph
1012.5mb 76f 77f
1:50pm 0.7ft  -  3s 4 7 mph 1013mb 75f 76f
12:50pm 0.7ft  -  3s 4
mph
1013.4mb 75f 75f
10:50am 1ft 3s 3s 7
mph
1014.5mb 74f 73f
9:50am 1ft 3s 3s 7 11 mph 1014.6mb 73f 72f
8:50am 1ft 4s 3s 9
mph
1014.7mb 73f 72f
7:50am 1ft 3s 3s 11 13 mph 1014.7mb 73f 71f